sensor_id;sensor_type;location;lat;lon;timestamp;P1;durP1;ratioP1;P2;durP2;ratioP2
14153;SDS011;7157;53.144;7.570;2022-12-07T00:00:40;7.25;;;3.38;;
14153;SDS011;7157;53.144;7.570;2022-12-07T00:10:44;7.75;;;3.53;;
14153;SDS011;7157;53.144;7.570;2022-12-07T00:20:47;9.15;;;5.15;;
14153;SDS011;7157;53.144;7.570;2022-12-07T00:30:51;11.32;;;5.45;;
14153;SDS011;7157;53.144;7.570;2022-12-07T00:40:54;9.73;;;4.93;;
14153;SDS011;7157;53.144;7.570;2022-12-07T00:50:59;14.50;;;5.55;;
14153;SDS011;7157;53.144;7.570;2022-12-07T01:01:03;14.10;;;5.45;;
14153;SDS011;7157;53.144;7.570;2022-12-07T01:11:09;11.32;;;5.38;;
14153;SDS011;7157;53.144;7.570;2022-12-07T01:21:16;11.95;;;3.38;;
14153;SDS011;7157;53.144;7.570;2022-12-07T01:31:23;11.85;;;3.22;;
14153;SDS011;7157;53.144;7.570;2022-12-07T01:41:30;7.57;;;2.70;;
14153;SDS011;7157;53.144;7.570;2022-12-07T01:51:36;14.27;;;2.55;;
14153;SDS011;7157;53.144;7.570;2022-12-07T02:01:41;2.88;;;0.85;;
14153;SDS011;7157;53.144;7.570;2022-12-07T02:11:45;12.73;;;1.38;;
14153;SDS011;7157;53.144;7.570;2022-12-07T02:21:49;1.58;;;0.65;;
14153;SDS011;7157;53.144;7.570;2022-12-07T02:31:59;5.90;;;0.80;;
14153;SDS011;7157;53.144;7.570;2022-12-07T02:42:09;1.77;;;0.50;;
14153;SDS011;7157;53.144;7.570;2022-12-07T02:52:17;1.55;;;0.73;;
14153;SDS011;7157;53.144;7.570;2022-12-07T03:02:22;6.07;;;0.60;;
14153;SDS011;7157;53.144;7.570;2022-12-07T03:12:35;0.57;;;0.40;;
14153;SDS011;7157;53.144;7.570;2022-12-07T03:22:44;2.72;;;0.50;;
14153;SDS011;7157;53.144;7.570;2022-12-07T03:32:50;0.50;;;0.43;;
14153;SDS011;7157;53.144;7.570;2022-12-07T03:42:59;1.65;;;0.73;;
14153;SDS011;7157;53.144;7.570;2022-12-07T03:53:05;0.52;;;0.40;;
14153;SDS011;7157;53.144;7.570;2022-12-07T04:03:13;1.63;;;0.98;;
14153;SDS011;7157;53.144;7.570;2022-12-07T04:13:17;5.25;;;0.68;;
14153;SDS011;7157;53.144;7.570;2022-12-07T04:23:20;8.00;;;1.98;;
14153;SDS011;7157;53.144;7.570;2022-12-07T04:33:24;3.70;;;0.55;;
14153;SDS011;7157;53.144;7.570;2022-12-07T04:43:27;0.73;;;0.40;;
14153;SDS011;7157;53.144;7.570;2022-12-07T04:53:31;9.05;;;1.95;;
14153;SDS011;7157;53.144;7.570;2022-12-07T05:03:34;8.18;;;1.17;;
14153;SDS011;7157;53.144;7.570;2022-12-07T05:13:39;10.98;;;0.77;;
14153;SDS011;7157;53.144;7.570;2022-12-07T05:23:42;0.40;;;0.38;;
14153;SDS011;7157;53.144;7.570;2022-12-07T05:33:46;3.38;;;0.70;;
14153;SDS011;7157;53.144;7.570;2022-12-07T05:43:49;2.63;;;0.70;;
14153;SDS011;7157;53.144;7.570;2022-12-07T05:53:53;4.43;;;1.05;;
14153;SDS011;7157;53.144;7.570;2022-12-07T06:03:56;1.95;;;0.90;;
14153;SDS011;7157;53.144;7.570;2022-12-07T06:14:00;3.60;;;0.63;;
14153;SDS011;7157;53.144;7.570;2022-12-07T06:24:03;2.47;;;0.80;;
14153;SDS011;7157;53.144;7.570;2022-12-07T06:34:09;1.15;;;0.63;;
14153;SDS011;7157;53.144;7.570;2022-12-07T06:44:14;3.15;;;0.80;;
14153;SDS011;7157;53.144;7.570;2022-12-07T06:54:18;0.70;;;0.47;;
14153;SDS011;7157;53.144;7.570;2022-12-07T07:04:20;3.70;;;1.02;;
14153;SDS011;7157;53.144;7.570;2022-12-07T07:14:25;1.90;;;0.70;;
14153;SDS011;7157;53.144;7.570;2022-12-07T07:24:27;1.80;;;1.00;;
14153;SDS011;7157;53.144;7.570;2022-12-07T07:34:31;3.55;;;0.85;;
14153;SDS011;7157;53.144;7.570;2022-12-07T07:44:34;1.90;;;0.60;;
14153;SDS011;7157;53.144;7.570;2022-12-07T07:54:38;1.77;;;0.85;;
14153;SDS011;7157;53.144;7.570;2022-12-07T08:04:41;15.80;;;1.48;;
14153;SDS011;7157;53.144;7.570;2022-12-07T08:14:46;3.78;;;1.40;;
14153;SDS011;7157;53.144;7.570;2022-12-07T08:24:49;8.05;;;1.10;;
14153;SDS011;7157;53.144;7.570;2022-12-07T08:34:53;4.15;;;1.50;;
14153;SDS011;7157;53.144;7.570;2022-12-07T08:44:55;2.60;;;1.25;;
14153;SDS011;7157;53.144;7.570;2022-12-07T08:55:00;5.82;;;1.00;;
14153;SDS011;7157;53.144;7.570;2022-12-07T09:05:04;11.25;;;1.33;;
14153;SDS011;7157;53.144;7.570;2022-12-07T09:15:16;4.47;;;0.80;;
14153;SDS011;7157;53.144;7.570;2022-12-07T09:25:19;7.28;;;0.93;;
14153;SDS011;7157;53.144;7.570;2022-12-07T09:35:23;6.30;;;1.08;;
14153;SDS011;7157;53.144;7.570;2022-12-07T09:45:28;11.02;;;1.58;;
14153;SDS011;7157;53.144;7.570;2022-12-07T09:55:36;3.83;;;0.90;;
14153;SDS011;7157;53.144;7.570;2022-12-07T10:05:41;6.53;;;1.58;;
14153;SDS011;7157;53.144;7.570;2022-12-07T10:15:50;8.02;;;1.08;;
14153;SDS011;7157;53.144;7.570;2022-12-07T10:25:54;4.30;;;0.98;;
14153;SDS011;7157;53.144;7.570;2022-12-07T10:35:58;7.05;;;1.30;;
14153;SDS011;7157;53.144;7.570;2022-12-07T10:46:20;5.93;;;1.33;;
14153;SDS011;7157;53.144;7.570;2022-12-07T10:56:55;1.88;;;0.65;;
14153;SDS011;7157;53.144;7.570;2022-12-07T11:07:07;5.25;;;0.63;;
14153;SDS011;7157;53.144;7.570;2022-12-07T11:17:18;2.90;;;0.68;;
14153;SDS011;7157;53.144;7.570;2022-12-07T11:27:29;1.92;;;0.80;;
14153;SDS011;7157;53.144;7.570;2022-12-07T11:37:39;2.58;;;0.70;;
14153;SDS011;7157;53.144;7.570;2022-12-07T11:47:48;3.67;;;2.10;;
14153;SDS011;7157;53.144;7.570;2022-12-07T11:57:58;3.45;;;0.90;;
14153;SDS011;7157;53.144;7.570;2022-12-07T12:18:45;6.03;;;1.00;;
14153;SDS011;7157;53.144;7.570;2022-12-07T12:29:05;2.22;;;1.00;;
14153;SDS011;7157;53.144;7.570;2022-12-07T12:39:22;5.43;;;1.25;;
14153;SDS011;7157;53.144;7.570;2022-12-07T12:49:33;4.90;;;1.52;;
14153;SDS011;7157;53.144;7.570;2022-12-07T12:59:39;4.22;;;0.80;;
14153;SDS011;7157;53.144;7.570;2022-12-07T13:09:44;5.93;;;1.48;;
14153;SDS011;7157;53.144;7.570;2022-12-07T13:30:07;6.20;;;1.13;;
14153;SDS011;7157;53.144;7.570;2022-12-07T13:40:18;7.63;;;1.33;;
14153;SDS011;7157;53.144;7.570;2022-12-07T13:50:23;2.10;;;0.90;;
14153;SDS011;7157;53.144;7.570;2022-12-07T14:00:29;5.63;;;1.25;;
14153;SDS011;7157;53.144;7.570;2022-12-07T14:10:33;2.72;;;1.00;;
14153;SDS011;7157;53.144;7.570;2022-12-07T14:20:38;2.65;;;1.50;;
14153;SDS011;7157;53.144;7.570;2022-12-07T14:30:42;8.20;;;1.40;;
14153;SDS011;7157;53.144;7.570;2022-12-07T14:40:48;4.10;;;1.00;;
14153;SDS011;7157;53.144;7.570;2022-12-07T14:50:52;1.77;;;0.90;;
14153;SDS011;7157;53.144;7.570;2022-12-07T15:01:16;1.67;;;0.80;;
14153;SDS011;7157;53.144;7.570;2022-12-07T15:11:20;4.22;;;1.10;;
14153;SDS011;7157;53.144;7.570;2022-12-07T15:21:24;1.60;;;0.60;;
14153;SDS011;7157;53.144;7.570;2022-12-07T15:31:27;2.00;;;0.70;;
14153;SDS011;7157;53.144;7.570;2022-12-07T15:41:51;8.43;;;1.55;;
14153;SDS011;7157;53.144;7.570;2022-12-07T15:51:53;4.47;;;1.13;;
14153;SDS011;7157;53.144;7.570;2022-12-07T16:01:57;10.30;;;1.70;;
14153;SDS011;7157;53.144;7.570;2022-12-07T16:12:00;3.17;;;1.42;;
14153;SDS011;7157;53.144;7.570;2022-12-07T16:22:04;0.40;;;0.30;;
14153;SDS011;7157;53.144;7.570;2022-12-07T16:32:07;6.70;;;1.75;;
14153;SDS011;7157;53.144;7.570;2022-12-07T16:42:11;5.18;;;1.25;;
14153;SDS011;7157;53.144;7.570;2022-12-07T16:52:14;4.28;;;1.75;;
14153;SDS011;7157;53.144;7.570;2022-12-07T17:02:23;1.98;;;0.98;;
14153;SDS011;7157;53.144;7.570;2022-12-07T17:12:25;4.13;;;1.90;;
14153;SDS011;7157;53.144;7.570;2022-12-07T17:22:29;4.10;;;2.00;;
14153;SDS011;7157;53.144;7.570;2022-12-07T17:32:32;5.25;;;3.00;;
14153;SDS011;7157;53.144;7.570;2022-12-07T17:42:36;8.52;;;4.32;;
14153;SDS011;7157;53.144;7.570;2022-12-07T17:52:40;5.00;;;2.05;;
14153;SDS011;7157;53.144;7.570;2022-12-07T18:03:02;12.90;;;2.93;;
14153;SDS011;7157;53.144;7.570;2022-12-07T18:13:06;9.88;;;3.63;;
14153;SDS011;7157;53.144;7.570;2022-12-07T18:23:27;9.10;;;3.20;;
14153;SDS011;7157;53.144;7.570;2022-12-07T18:33:30;3.97;;;2.05;;
14153;SDS011;7157;53.144;7.570;2022-12-07T18:43:34;6.32;;;3.10;;
14153;SDS011;7157;53.144;7.570;2022-12-07T18:53:37;9.85;;;4.07;;
14153;SDS011;7157;53.144;7.570;2022-12-07T19:03:42;9.10;;;3.83;;
14153;SDS011;7157;53.144;7.570;2022-12-07T19:13:44;10.15;;;2.65;;
14153;SDS011;7157;53.144;7.570;2022-12-07T19:23:48;3.35;;;1.77;;
14153;SDS011;7157;53.144;7.570;2022-12-07T19:33:51;2.95;;;1.52;;
14153;SDS011;7157;53.144;7.570;2022-12-07T19:43:56;3.58;;;1.58;;
14153;SDS011;7157;53.144;7.570;2022-12-07T19:54:00;5.53;;;2.10;;
14153;SDS011;7157;53.144;7.570;2022-12-07T20:04:05;4.22;;;1.85;;
14153;SDS011;7157;53.144;7.570;2022-12-07T20:14:09;6.57;;;2.10;;
14153;SDS011;7157;53.144;7.570;2022-12-07T20:24:15;4.90;;;2.08;;
14153;SDS011;7157;53.144;7.570;2022-12-07T20:34:19;6.47;;;2.10;;
14153;SDS011;7157;53.144;7.570;2022-12-07T20:44:23;10.25;;;3.90;;
14153;SDS011;7157;53.144;7.570;2022-12-07T20:54:27;6.63;;;2.67;;
14153;SDS011;7157;53.144;7.570;2022-12-07T21:04:31;8.07;;;3.17;;
14153;SDS011;7157;53.144;7.570;2022-12-07T21:14:33;6.05;;;3.05;;
14153;SDS011;7157;53.144;7.570;2022-12-07T21:24:38;5.05;;;1.70;;
14153;SDS011;7157;53.144;7.570;2022-12-07T21:34:41;2.60;;;1.70;;
14153;SDS011;7157;53.144;7.570;2022-12-07T21:44:46;3.50;;;1.92;;
14153;SDS011;7157;53.144;7.570;2022-12-07T21:54:49;7.75;;;1.75;;
14153;SDS011;7157;53.144;7.570;2022-12-07T22:04:53;5.55;;;2.00;;
14153;SDS011;7157;53.144;7.570;2022-12-07T22:14:56;5.30;;;2.47;;
14153;SDS011;7157;53.144;7.570;2022-12-07T22:25:10;8.20;;;3.03;;
14153;SDS011;7157;53.144;7.570;2022-12-07T22:35:13;8.95;;;2.30;;
14153;SDS011;7157;53.144;7.570;2022-12-07T22:45:17;3.90;;;2.13;;
14153;SDS011;7157;53.144;7.570;2022-12-07T22:55:20;4.00;;;1.77;;
14153;SDS011;7157;53.144;7.570;2022-12-07T23:05:24;11.65;;;2.55;;
14153;SDS011;7157;53.144;7.570;2022-12-07T23:15:27;5.22;;;2.00;;
14153;SDS011;7157;53.144;7.570;2022-12-07T23:25:32;2.72;;;1.35;;
14153;SDS011;7157;53.144;7.570;2022-12-07T23:35:35;8.13;;;1.73;;
14153;SDS011;7157;53.144;7.570;2022-12-07T23:45:39;4.60;;;1.70;;
14153;SDS011;7157;53.144;7.570;2022-12-07T23:55:46;2.88;;;1.45;;
